Time;durP1;ratioP1;P1;durP2;ratioP2;P2;SDS_P1;SDS_P2;PMS_P1;PMS_P2;Temp;Humidity;BMP_temperature;BMP_pressure;BME280_temperature;BME280_humidity;BME280_pressure;Samples;Min_cycle;Max_cycle;Signal;HPM_P1;HPM_P2
2023/05/02 00:02:12;;;;;;;16.90;5.88;;;10.60;99.90;;;;;;5001345;28;20049;-78
2023/05/02 00:04:38;;;;;;;22.50;5.53;;;10.60;99.90;;;;;;5004465;28;20089;-79
2023/05/02 00:07:04;;;;;;;16.52;5.82;;;10.60;99.90;;;;;;4985568;28;20050;-77
2023/05/02 00:09:30;;;;;;;15.55;5.32;;;10.60;99.90;;;;;;4990986;28;20054;-78
2023/05/02 00:11:56;;;;;;;14.65;4.63;;;10.60;99.90;;;;;;5000245;28;20463;-77
2023/05/02 00:14:23;;;;;;;13.55;4.10;;;10.60;99.90;;;;;;5002947;28;20038;-77
2023/05/02 00:16:49;;;;;;;13.52;4.13;;;10.60;99.90;;;;;;4987663;28;20160;-77
2023/05/02 00:19:14;;;;;;;15.68;4.00;;;10.60;99.90;;;;;;5003291;28;20539;-75
2023/05/02 00:21:40;;;;;;;8.55;3.65;;;10.60;99.90;;;;;;4996808;28;20054;-78
2023/05/02 00:24:08;;;;;;;13.10;3.63;;;10.60;99.90;;;;;;4999660;28;20049;-78
2023/05/02 00:26:34;;;;;;;12.20;3.15;;;10.60;99.90;;;;;;4978274;28;20641;-77
2023/05/02 00:29:00;;;;;;;12.77;3.22;;;10.60;99.90;;;;;;5000306;28;20505;-78
2023/05/02 00:31:25;;;;;;;17.00;3.30;;;10.60;99.90;;;;;;4989526;28;20056;-77
2023/05/02 00:33:51;;;;;;;16.90;3.45;;;10.60;99.90;;;;;;4994586;28;20100;-78
2023/05/02 00:36:18;;;;;;;11.10;3.00;;;10.60;99.90;;;;;;4998264;28;20104;-78
2023/05/02 00:38:44;;;;;;;11.55;3.20;;;10.80;99.90;;;;;;5001964;28;20050;-78
2023/05/02 00:41:11;;;;;;;14.95;3.50;;;10.60;99.90;;;;;;4999980;28;20042;-77
2023/05/02 00:43:40;;;;;;;12.52;3.17;;;10.60;99.90;;;;;;5008776;28;20052;-78
2023/05/02 00:46:06;;;;;;;14.73;2.80;;;10.60;99.90;;;;;;5004778;28;20043;-78
2023/05/02 00:48:33;;;;;;;12.77;2.95;;;10.50;99.90;;;;;;5002442;28;20049;-77
2023/05/02 00:51:01;;;;;;;11.95;2.85;;;10.50;99.90;;;;;;5002688;28;20236;-79
2023/05/02 00:53:27;;;;;;;14.63;2.80;;;10.50;99.90;;;;;;5008875;28;20675;-78
2023/05/02 00:55:53;;;;;;;10.05;2.67;;;10.50;99.90;;;;;;4996861;28;20081;-78
2023/05/02 00:58:19;;;;;;;12.80;3.10;;;10.50;99.90;;;;;;4975781;28;20141;-78
2023/05/02 01:01:06;;;;;;;11.60;2.22;;;10.50;99.90;;;;;;5004704;28;20069;-77
2023/05/02 01:03:55;;;;;;;16.15;3.10;;;10.50;99.90;;;;;;4997138;28;20392;-78
2023/05/02 01:06:35;;;;;;;9.80;2.50;;;10.50;99.90;;;;;;4990651;28;20054;-80
2023/05/02 01:09:29;;;;;;;13.73;2.47;;;10.50;99.90;;;;;;4980969;28;20034;-77
2023/05/02 01:12:02;;;;;;;11.75;2.92;;;10.50;99.90;;;;;;4995891;28;20041;-77
2023/05/02 01:14:32;;;;;;;11.20;2.60;;;10.50;99.90;;;;;;5002980;28;20710;-78
2023/05/02 01:17:05;;;;;;;17.55;3.67;;;10.50;99.90;;;;;;5004481;28;20478;-78
2023/05/02 01:19:35;;;;;;;21.85;4.97;;;10.50;99.90;;;;;;4991779;28;20050;-79
2023/05/02 01:22:05;;;;;;;22.45;4.68;;;10.30;99.90;;;;;;4993043;28;20046;-79
2023/05/02 01:24:51;;;;;;;17.90;4.07;;;10.20;99.90;;;;;;4995427;28;20525;-80
2023/05/02 01:27:38;;;;;;;15.43;4.18;;;10.00;99.90;;;;;;5012805;28;20042;-79
2023/05/02 01:30:07;;;;;;;17.95;4.90;;;9.90;99.90;;;;;;4988993;28;20050;-79
2023/05/02 01:32:36;;;;;;;16.90;5.22;;;9.80;99.90;;;;;;4995812;28;20157;-79
2023/05/02 01:35:03;;;;;;;21.80;4.75;;;9.80;99.90;;;;;;4986196;28;20081;-80
2023/05/02 01:37:30;;;;;;;18.20;4.63;;;9.70;99.90;;;;;;4990177;28;20054;-78
2023/05/02 01:39:57;;;;;;;20.58;5.28;;;9.60;99.90;;;;;;4999784;28;20053;-79
2023/05/02 01:42:25;;;;;;;18.38;4.28;;;9.50;99.90;;;;;;5001187;28;20064;-79
2023/05/02 01:44:53;;;;;;;15.00;3.58;;;9.50;99.90;;;;;;5006125;28;20772;-77
2023/05/02 01:47:21;;;;;;;19.85;4.13;;;9.50;99.90;;;;;;5005535;28;20475;-79
2023/05/02 01:49:47;;;;;;;24.85;3.90;;;9.40;99.90;;;;;;5003628;28;20096;-78
2023/05/02 01:52:13;;;;;;;20.42;4.07;;;9.40;99.90;;;;;;5001357;28;20069;-79
2023/05/02 01:54:40;;;;;;;20.42;3.92;;;9.30;99.90;;;;;;5002322;28;20054;-79
2023/05/02 01:57:08;;;;;;;18.08;3.88;;;9.60;99.90;;;;;;5002989;28;20045;-79
2023/05/02 01:59:35;;;;;;;21.83;4.43;;;9.30;99.90;;;;;;5000820;28;20050;-81
2023/05/02 02:02:04;;;;;;;17.75;3.63;;;9.10;99.90;;;;;;4973425;28;20469;-80
2023/05/02 02:04:31;;;;;;;17.27;3.70;;;9.10;99.90;;;;;;4984944;28;20105;-81
2023/05/02 02:07:02;;;;;;;25.35;4.97;;;9.10;99.90;;;;;;4984110;28;20050;-79
2023/05/02 02:09:29;;;;;;;26.52;4.75;;;9.00;99.90;;;;;;4986464;28;20046;-80
2023/05/02 02:12:03;;;;;;;25.17;4.90;;;9.40;99.90;;;;;;4992397;28;20057;-81
2023/05/02 02:14:35;;;;;;;22.65;5.22;;;8.80;99.90;;;;;;5006200;28;20069;-79
2023/05/02 02:17:21;;;;;;;24.40;5.70;;;9.10;99.90;;;;;;4994978;28;20111;-79
2023/05/02 02:19:48;;;;;;;23.50;5.35;;;8.80;99.90;;;;;;5003447;28;20050;-79
2023/05/02 02:22:18;;;;;;;27.40;4.50;;;8.70;99.90;;;;;;5001489;28;20083;-79
2023/05/02 02:24:46;;;;;;;18.05;4.22;;;8.70;99.90;;;;;;4981216;28;20049;-79
2023/05/02 02:27:12;;;;;;;27.13;5.15;;;8.60;99.90;;;;;;4983065;28;20046;-80
2023/05/02 02:29:38;;;;;;;26.58;5.65;;;9.20;99.90;;;;;;5001530;28;20122;-80
2023/05/02 02:32:04;;;;;;;25.38;5.20;;;8.60;99.90;;;;;;5002766;28;20034;-80
2023/05/02 02:34:30;;;;;;;24.55;4.13;;;8.60;99.90;;;;;;4979616;28;20034;-81
2023/05/02 02:36:58;;;;;;;22.98;4.57;;;8.60;99.90;;;;;;5003938;28;20140;-79
2023/05/02 02:39:53;;;;;;;13.27;4.30;;;8.50;99.90;;;;;;5003752;28;20636;-78
2023/05/02 02:42:30;;;;;;;23.10;4.72;;;8.50;99.90;;;;;;5000986;28;20056;-80
2023/05/02 02:45:08;;;;;;;20.40;4.78;;;8.50;99.90;;;;;;4996234;28;20045;-78
2023/05/02 02:47:50;;;;;;;23.08;5.15;;;8.50;99.90;;;;;;5004525;28;20681;-79
2023/05/02 02:50:21;;;;;;;29.80;5.15;;;8.40;99.90;;;;;;5005812;28;20042;-79
2023/05/02 02:53:04;;;;;;;21.02;4.43;;;8.40;99.90;;;;;;4973811;28;20050;-80
2023/05/02 02:55:57;;;;;;;17.58;4.05;;;8.40;99.90;;;;;;4990754;28;20050;-79
2023/05/02 02:58:44;;;;;;;23.45;3.97;;;8.30;99.90;;;;;;4994121;28;20049;-79
2023/05/02 03:01:15;;;;;;;17.98;3.40;;;8.30;99.90;;;;;;4995025;28;20326;-80
2023/05/02 03:03:42;;;;;;;;;;;8.20;99.90;;;;;;4993698;28;20062;-79
2023/05/02 03:06:08;;;;;;;16.63;3.30;;;8.20;99.90;;;;;;5024596;28;19921;-79
2023/05/02 03:08:40;;;;;;;16.42;3.25;;;8.10;99.90;;;;;;4985797;28;20057;-80
2023/05/02 03:11:07;;;;;;;18.80;4.18;;;8.10;99.90;;;;;;4997457;28;21380;-82
2023/05/02 03:13:33;;;;;;;23.75;4.70;;;8.00;99.90;;;;;;4995009;28;20045;-79
2023/05/02 03:16:30;;;;;;;16.63;3.63;;;8.00;99.90;;;;;;4999633;28;20411;-81
2023/05/02 03:18:55;;;;;;;15.43;2.72;;;7.90;99.90;;;;;;4984209;28;20128;-80
2023/05/02 03:21:21;;;;;;;15.55;2.90;;;7.90;99.90;;;;;;4983315;28;20121;-80
2023/05/02 03:23:47;;;;;;;15.48;3.60;;;7.90;99.90;;;;;;4996267;28;20559;-79
2023/05/02 03:26:13;;;;;;;23.63;4.95;;;7.90;99.90;;;;;;4982764;28;20057;-79
2023/05/02 03:28:38;;;;;;;15.95;2.90;;;7.90;99.90;;;;;;4993976;28;20046;-79
2023/05/02 03:31:04;;;;;;;22.38;3.15;;;7.90;99.90;;;;;;4991974;28;20046;-80
2023/05/02 03:33:31;;;;;;;16.05;3.10;;;8.00;99.90;;;;;;4995086;28;20069;-79
2023/05/02 03:35:57;;;;;;;21.98;3.00;;;7.90;99.90;;;;;;4993803;28;20042;-80
2023/05/02 03:38:23;;;;;;;17.40;2.70;;;7.90;99.90;;;;;;4990206;28;20109;-80
2023/05/02 03:40:49;;;;;;;17.02;2.97;;;7.90;99.90;;;;;;4981222;28;20046;-78
2023/05/02 03:43:15;;;;;;;15.75;2.78;;;7.80;99.90;;;;;;4991024;28;20046;-79
2023/05/02 03:45:40;;;;;;;17.25;3.15;;;7.80;99.90;;;;;;4997769;28;20038;-80
2023/05/02 03:48:06;;;;;;;18.50;3.50;;;7.80;99.90;;;;;;5000102;28;20045;-80
2023/05/02 03:50:32;;;;;;;17.38;3.15;;;7.70;99.90;;;;;;4999096;28;20049;-80
2023/05/02 03:52:57;;;;;;;13.38;2.80;;;7.70;99.90;;;;;;4988739;28;20061;-80
2023/05/02 03:55:23;;;;;;;13.00;3.30;;;7.70;99.90;;;;;;4997172;28;20057;-81
2023/05/02 03:57:52;;;;;;;11.50;2.65;;;7.70;99.90;;;;;;5001570;28;20042;-80
2023/05/02 04:00:18;;;;;;;12.55;2.50;;;7.60;99.90;;;;;;5002407;28;20049;-80
2023/05/02 04:02:43;;;;;;;14.82;2.50;;;7.60;99.90;;;;;;4987003;28;20061;-78
2023/05/02 04:05:09;;;;;;;9.00;2.10;;;7.60;99.90;;;;;;4998366;28;20054;-79
2023/05/02 04:07:35;;;;;;;10.38;2.30;;;7.60;99.90;;;;;;5000854;28;20077;-79
2023/05/02 04:10:01;;;;;;;12.32;2.30;;;7.60;99.90;;;;;;5002634;28;20092;-79
2023/05/02 04:12:26;;;;;;;10.50;2.50;;;7.50;99.90;;;;;;4992281;28;20092;-80
2023/05/02 04:14:52;;;;;;;12.43;2.75;;;7.50;99.90;;;;;;5007954;28;20136;-81
2023/05/02 04:17:18;;;;;;;13.05;2.63;;;7.50;99.90;;;;;;5006997;28;20369;-79
2023/05/02 04:19:44;;;;;;;9.73;2.15;;;7.40;99.90;;;;;;4995265;28;20046;-79
2023/05/02 04:22:09;;;;;;;11.65;2.58;;;7.40;99.90;;;;;;5006612;28;20046;-80
2023/05/02 04:24:35;;;;;;;14.45;2.85;;;7.40;99.90;;;;;;4994032;28;20048;-80
2023/05/02 04:27:01;;;;;;;12.88;2.80;;;7.40;99.90;;;;;;4993713;28;20088;-81
2023/05/02 04:29:27;;;;;;;12.00;2.40;;;7.40;99.90;;;;;;5000344;28;20046;-80
2023/05/02 04:31:53;;;;;;;10.70;2.45;;;7.70;99.90;;;;;;5001667;28;20120;-79
2023/05/02 04:34:19;;;;;;;9.50;2.10;;;7.40;99.90;;;;;;4999695;28;20046;-78
2023/05/02 04:36:48;;;;;;;14.82;3.22;;;7.40;99.90;;;;;;4978815;28;20054;-80
2023/05/02 04:39:14;;;;;;;13.27;2.42;;;7.40;99.90;;;;;;4993461;28;20057;-79
2023/05/02 04:41:40;;;;;;;11.70;2.30;;;7.60;99.90;;;;;;5007157;28;20129;-79
2023/05/02 04:44:07;;;;;;;10.30;2.60;;;7.30;99.90;;;;;;5007384;28;20070;-79
2023/05/02 04:46:33;;;;;;;14.80;2.78;;;7.30;99.90;;;;;;4997451;28;20196;-79
2023/05/02 04:48:58;;;;;;;8.80;2.60;;;7.30;99.90;;;;;;5004449;28;20069;-78
2023/05/02 04:51:24;;;;;;;12.63;2.28;;;7.30;99.90;;;;;;4996784;28;20049;-79
2023/05/02 04:53:50;;;;;;;12.38;2.53;;;7.30;99.90;;;;;;4999022;28;20551;-81
2023/05/02 04:56:15;;;;;;;8.63;2.78;;;7.40;99.90;;;;;;5003230;28;20042;-81
2023/05/02 04:58:41;;;;;;;10.13;2.33;;;7.50;99.90;;;;;;5002344;28;20046;-79
2023/05/02 05:01:07;;;;;;;13.13;2.70;;;7.30;99.90;;;;;;4999582;28;20080;-80
2023/05/02 05:03:33;;;;;;;14.07;2.70;;;7.50;99.90;;;;;;4986200;28;20050;-79
2023/05/02 05:05:58;;;;;;;19.90;3.00;;;7.30;99.90;;;;;;5021176;28;20526;-79
2023/05/02 05:08:24;;;;;;;13.98;2.88;;;7.30;99.90;;;;;;5007877;28;20046;-79
2023/05/02 05:10:50;;;;;;;12.18;2.28;;;7.30;99.90;;;;;;5002162;28;20065;-79
2023/05/02 05:13:16;;;;;;;12.82;2.78;;;7.30;99.90;;;;;;5002984;28;20161;-79
2023/05/02 05:15:43;;;;;;;10.25;2.22;;;7.20;99.90;;;;;;5001291;28;20150;-79
2023/05/02 05:18:08;;;;;;;11.57;2.45;;;7.30;99.90;;;;;;4979575;28;20049;-80
2023/05/02 05:20:34;;;;;;;12.57;3.15;;;7.20;99.90;;;;;;4999165;28;20052;-80
2023/05/02 05:23:00;;;;;;;11.65;2.75;;;7.30;99.90;;;;;;5000105;28;20049;-81
2023/05/02 05:25:26;;;;;;;9.80;2.63;;;7.30;99.90;;;;;;5000393;28;20754;-81
2023/05/02 05:27:53;;;;;;;14.82;2.72;;;7.20;99.90;;;;;;5001352;28;20050;-80
2023/05/02 05:30:19;;;;;;;16.02;2.42;;;7.30;99.90;;;;;;5006623;28;20049;-79
2023/05/02 05:32:45;;;;;;;17.83;2.55;;;7.30;99.90;;;;;;4996686;28;20376;-79
2023/05/02 05:35:11;;;;;;;10.85;2.22;;;7.30;99.90;;;;;;5004678;28;20050;-80
2023/05/02 05:37:38;;;;;;;9.48;2.60;;;7.30;99.90;;;;;;4997756;28;20086;-80
2023/05/02 05:40:06;;;;;;;14.23;2.15;;;7.30;99.90;;;;;;4997692;28;20533;-80
2023/05/02 05:42:32;;;;;;;11.13;2.45;;;7.30;99.90;;;;;;4998369;28;20085;-80
2023/05/02 05:44:57;;;;;;;13.55;2.60;;;7.30;99.90;;;;;;5000424;28;20076;-79
2023/05/02 05:47:23;;;;;;;12.77;3.22;;;7.30;99.90;;;;;;5000278;28;20034;-79
2023/05/02 05:49:55;;;;;;;14.23;2.40;;;7.40;99.90;;;;;;4988052;28;20037;-80
2023/05/02 05:52:21;;;;;;;12.98;3.25;;;7.30;99.90;;;;;;4994156;28;20083;-80
2023/05/02 05:54:47;;;;;;;12.38;2.70;;;7.40;99.90;;;;;;4990117;28;20776;-78
2023/05/02 05:57:13;;;;;;;11.27;2.40;;;7.40;99.90;;;;;;4990471;28;20074;-79
2023/05/02 05:59:39;;;;;;;13.73;2.80;;;7.40;99.90;;;;;;4993748;28;20490;-81
2023/05/02 06:02:05;;;;;;;16.17;3.03;;;7.30;99.90;;;;;;4994176;28;20037;-79
2023/05/02 06:04:31;;;;;;;13.18;2.28;;;7.30;99.90;;;;;;4979975;28;20042;-80
2023/05/02 06:06:56;;;;;;;15.93;2.35;;;7.30;99.90;;;;;;4982097;28;20124;-80
2023/05/02 06:09:22;;;;;;;14.55;2.78;;;7.30;99.90;;;;;;4998644;28;20100;-80
2023/05/02 06:11:48;;;;;;;13.32;2.65;;;7.30;99.90;;;;;;5001172;28;20564;-80
2023/05/02 06:14:13;;;;;;;10.32;2.80;;;7.30;99.90;;;;;;4995606;28;20086;-80
2023/05/02 06:16:39;;;;;;;15.00;2.60;;;7.40;99.90;;;;;;4980844;28;20280;-78
2023/05/02 06:19:07;;;;;;;17.10;3.55;;;7.30;99.90;;;;;;4997505;28;20486;-79
2023/05/02 06:21:35;;;;;;;12.65;3.10;;;7.30;99.90;;;;;;5001565;28;20124;-81
2023/05/02 06:24:01;;;;;;;17.60;3.83;;;7.30;99.90;;;;;;5003412;28;20819;-81
2023/05/02 06:26:27;;;;;;;15.55;2.88;;;7.30;99.90;;;;;;4994901;28;20058;-80
2023/05/02 06:28:54;;;;;;;12.93;3.00;;;7.30;99.90;;;;;;4997927;28;20038;-80
2023/05/02 06:31:20;;;;;;;12.55;2.80;;;7.40;99.90;;;;;;5011501;28;20038;-80
2023/05/02 06:33:45;;;;;;;19.45;2.70;;;7.40;99.90;;;;;;4983825;28;20052;-79
2023/05/02 06:36:11;;;;;;;14.25;3.05;;;7.30;99.90;;;;;;4979250;28;20064;-80
2023/05/02 06:38:37;;;;;;;13.15;2.80;;;7.30;99.90;;;;;;4996143;28;20046;-79
2023/05/02 06:41:02;;;;;;;12.95;3.38;;;7.40;99.90;;;;;;4982903;28;20163;-78
2023/05/02 06:43:28;;;;;;;20.65;2.97;;;7.40;99.90;;;;;;5003549;28;20038;-79
2023/05/02 06:45:55;;;;;;;13.95;3.50;;;7.30;99.90;;;;;;4999351;28;20054;-78
2023/05/02 06:48:21;;;;;;;12.85;2.88;;;7.30;99.90;;;;;;4999826;28;20068;-78
2023/05/02 06:50:48;;;;;;;12.98;3.03;;;7.50;99.90;;;;;;4999990;28;20049;-77
2023/05/02 06:53:14;;;;;;;15.70;2.63;;;7.30;99.90;;;;;;5001704;28;20050;-80
2023/05/02 06:55:40;;;;;;;19.27;2.90;;;7.30;99.90;;;;;;4996976;28;20061;-80
2023/05/02 06:58:06;;;;;;;12.18;2.55;;;7.30;99.90;;;;;;5013071;28;20543;-80
2023/05/02 07:00:32;;;;;;;15.75;2.85;;;7.30;99.90;;;;;;4990929;28;20188;-79
2023/05/02 07:02:57;;;;;;;11.65;2.20;;;7.30;99.90;;;;;;4998694;28;20097;-78
2023/05/02 07:05:23;;;;;;;12.10;2.58;;;7.30;99.90;;;;;;4976988;28;20089;-81
2023/05/02 07:07:49;;;;;;;12.68;3.13;;;7.30;99.90;;;;;;4998154;28;20742;-80
2023/05/02 07:10:15;;;;;;;10.57;2.28;;;7.40;99.90;;;;;;4998550;28;20045;-81
2023/05/02 07:12:41;;;;;;;17.60;2.80;;;7.40;99.90;;;;;;5003387;28;20045;-81
2023/05/02 07:15:07;;;;;;;10.18;2.60;;;7.40;99.90;;;;;;4998967;28;20415;-81
2023/05/02 07:17:33;;;;;;;14.50;2.83;;;7.40;99.90;;;;;;4996953;28;20060;-80
2023/05/02 07:19:58;;;;;;;16.30;4.25;;;7.20;99.90;;;;;;5002682;28;20132;-81
2023/05/02 07:22:25;;;;;;;9.13;2.70;;;7.50;99.90;;;;;;5001636;28;20895;-81
2023/05/02 07:24:58;;;;;;;12.60;2.80;;;7.50;99.90;;;;;;4993228;28;20407;-81
2023/05/02 07:27:23;;;;;;;11.57;3.08;;;7.50;99.90;;;;;;4979261;28;20042;-81
2023/05/02 07:29:50;;;;;;;11.45;2.30;;;7.50;99.90;;;;;;5004078;28;20045;-80
2023/05/02 07:32:16;;;;;;;10.55;2.90;;;7.60;99.90;;;;;;4986056;28;20057;-81
2023/05/02 07:34:42;;;;;;;12.23;2.38;;;7.60;99.90;;;;;;5003463;28;20038;-81
2023/05/02 07:37:08;;;;;;;14.13;3.25;;;7.60;99.90;;;;;;5003003;28;20050;-81
2023/05/02 07:39:34;;;;;;;17.95;3.78;;;7.60;99.90;;;;;;4996679;28;20402;-81
2023/05/02 07:42:00;;;;;;;12.95;2.13;;;7.60;99.90;;;;;;4998732;28;20108;-80
2023/05/02 07:44:25;;;;;;;15.73;2.67;;;7.60;99.90;;;;;;5000866;28;20045;-80
2023/05/02 07:46:52;;;;;;;11.23;3.17;;;7.60;99.90;;;;;;4999031;28;20049;-80
2023/05/02 07:49:19;;;;;;;9.73;2.25;;;7.60;99.90;;;;;;4997772;28;20104;-81
2023/05/02 07:51:44;;;;;;;12.07;2.40;;;7.60;99.90;;;;;;4996032;28;20050;-80
2023/05/02 07:54:18;;;;;;;10.05;2.65;;;7.60;99.90;;;;;;4997520;28;20043;-81
2023/05/02 07:56:44;;;;;;;10.02;2.72;;;7.70;99.90;;;;;;4980964;28;20712;-81
2023/05/02 07:59:10;;;;;;;15.93;2.33;;;7.70;99.90;;;;;;4999932;28;20054;-81
2023/05/02 08:01:36;;;;;;;10.38;2.30;;;7.70;99.90;;;;;;5003925;28;20034;-82
2023/05/02 08:04:03;;;;;;;12.10;2.55;;;8.30;99.90;;;;;;4983499;28;20054;-81
2023/05/02 08:06:29;;;;;;;12.18;2.80;;;7.70;99.90;;;;;;4995384;28;20635;-81
2023/05/02 08:08:55;;;;;;;9.30;2.20;;;7.70;99.90;;;;;;5007316;28;20052;-82
2023/05/02 08:11:24;;;;;;;7.32;1.63;;;7.70;99.90;;;;;;5002599;28;20053;-81
2023/05/02 08:13:50;;;;;;;11.60;2.00;;;7.80;99.90;;;;;;5005921;28;20533;-80
2023/05/02 08:16:17;;;;;;;9.13;2.35;;;7.80;99.90;;;;;;5002461;28;20042;-82
2023/05/02 08:18:43;;;;;;;8.63;2.35;;;8.20;99.90;;;;;;4992983;28;20049;-80
2023/05/02 08:21:09;;;;;;;10.10;2.15;;;7.90;99.90;;;;;;4997992;28;20038;-81
2023/05/02 08:23:36;;;;;;;12.18;1.67;;;8.20;99.90;;;;;;4999358;28;20143;-79
2023/05/02 08:26:02;;;;;;;8.50;2.13;;;7.90;99.90;;;;;;4999952;28;20425;-81
2023/05/02 08:28:27;;;;;;;7.22;1.63;;;7.90;99.90;;;;;;5000268;28;20051;-78
2023/05/02 08:30:53;;;;;;;9.35;2.63;;;7.90;99.90;;;;;;4995608;28;20050;-80
2023/05/02 08:33:19;;;;;;;7.97;2.13;;;7.90;99.90;;;;;;4999185;28;20049;-81
2023/05/02 08:35:45;;;;;;;10.10;1.83;;;8.00;99.90;;;;;;4997301;28;20627;-81
2023/05/02 08:38:11;;;;;;;5.90;1.77;;;7.90;99.90;;;;;;4998196;28;20134;-82
2023/05/02 08:40:37;;;;;;;11.00;1.80;;;8.00;99.90;;;;;;5000776;28;20046;-81
2023/05/02 08:43:04;;;;;;;13.10;1.80;;;8.00;99.90;;;;;;4982826;28;20072;-81
2023/05/02 08:45:37;;;;;;;8.48;2.05;;;8.00;99.90;;;;;;4996275;28;20045;-80
2023/05/02 08:48:09;;;;;;;6.10;1.55;;;8.20;99.90;;;;;;5001508;28;20469;-81
2023/05/02 08:50:40;;;;;;;;;;;8.10;99.90;;;;;;5006808;28;20049;-81
2023/05/02 08:53:07;;;;;;;11.43;2.20;;;8.20;99.90;;;;;;4985158;28;20298;-80
2023/05/02 08:55:35;;;;;;;8.07;1.83;;;8.30;99.90;;;;;;5018024;28;20678;-79
2023/05/02 08:58:03;;;;;;;12.82;1.70;;;9.00;99.90;;;;;;5004414;28;20046;-80
2023/05/02 09:00:29;;;;;;;7.22;1.70;;;8.70;99.90;;;;;;5000305;28;20467;-81
2023/05/02 09:03:28;;;;;;;7.70;1.70;;;8.50;99.90;;;;;;5002178;28;20194;-80
2023/05/02 09:06:05;;;;;;;7.25;1.45;;;8.60;99.90;;;;;;4997294;28;20125;-78
2023/05/02 09:08:31;;;;;;;11.32;2.40;;;8.60;99.90;;;;;;5002190;28;20137;-80
2023/05/02 09:10:57;;;;;;;10.63;1.60;;;8.60;99.90;;;;;;5003665;28;20046;-79
2023/05/02 09:13:50;;;;;;;8.10;1.60;;;8.60;99.90;;;;;;5005346;28;20034;-79
2023/05/02 09:16:17;;;;;;;6.05;1.42;;;8.60;99.90;;;;;;4999284;28;20080;-80
2023/05/02 09:18:48;;;;;;;6.32;1.30;;;8.60;99.90;;;;;;5002444;28;20129;-78
2023/05/02 09:21:20;;;;;;;4.07;1.00;;;8.70;99.90;;;;;;5001866;28;20054;-80
2023/05/02 09:23:48;;;;;;;9.07;1.33;;;8.70;99.90;;;;;;4996892;28;20459;-80
2023/05/02 09:26:20;;;;;;;6.38;1.10;;;8.70;99.90;;;;;;4995610;28;20080;-80
2023/05/02 09:28:50;;;;;;;6.10;1.00;;;8.80;99.90;;;;;;5005309;28;20046;-79
2023/05/02 09:31:18;;;;;;;6.32;1.30;;;8.80;99.90;;;;;;4998840;28;20139;-78
2023/05/02 09:33:44;;;;;;;3.88;0.85;;;8.80;99.90;;;;;;5002404;28;20080;-80
2023/05/02 09:36:15;;;;;;;5.63;1.30;;;8.90;99.90;;;;;;5003379;28;20044;-78
2023/05/02 09:38:47;;;;;;;5.70;1.02;;;8.90;99.90;;;;;;4985071;28;20431;-80
2023/05/02 09:41:12;;;;;;;;;;;9.10;99.90;;;;;;5002412;28;20503;-80
2023/05/02 09:43:39;;;;;;;3.65;0.80;;;8.90;99.90;;;;;;5005510;28;19929;-77
2023/05/02 09:46:07;;;;;;;7.47;1.30;;;8.90;99.90;;;;;;4998078;28;20131;-79
2023/05/02 09:48:54;;;;;;;3.20;1.35;;;8.90;99.90;;;;;;4996408;28;20096;-80
2023/05/02 09:51:22;;;;;;;6.00;1.30;;;8.90;99.90;;;;;;4998089;28;20050;-80
2023/05/02 09:53:48;;;;;;;5.78;0.98;;;8.90;99.90;;;;;;4989060;28;20037;-79
2023/05/02 09:56:14;;;;;;;5.07;1.10;;;9.10;99.90;;;;;;4995729;28;20045;-81
2023/05/02 09:58:40;;;;;;;7.45;1.23;;;9.10;99.90;;;;;;4997754;28;20096;-80
2023/05/02 10:01:06;;;;;;;7.28;1.35;;;9.20;99.90;;;;;;4997945;28;20049;-80
2023/05/02 10:03:36;;;;;;;5.68;1.42;;;9.30;99.90;;;;;;5004644;28;20073;-80
2023/05/02 10:06:04;;;;;;;5.43;1.23;;;9.30;99.90;;;;;;5005387;28;20046;-80
2023/05/02 10:08:32;;;;;;;7.85;1.40;;;9.30;99.90;;;;;;4998138;28;20042;-80
2023/05/02 10:10:59;;;;;;;5.32;1.02;;;9.30;99.90;;;;;;5002262;28;20034;-80
2023/05/02 10:13:30;;;;;;;5.78;1.33;;;9.40;99.90;;;;;;4992490;28;20127;-80
2023/05/02 10:16:00;;;;;;;3.97;1.02;;;9.30;99.90;;;;;;4990838;28;20038;-80
2023/05/02 10:18:47;;;;;;;6.07;1.35;;;9.30;99.90;;;;;;4999757;28;20049;-80
2023/05/02 10:21:17;;;;;;;2.83;1.10;;;9.30;99.90;;;;;;4999446;28;20312;-81
2023/05/02 10:23:43;;;;;;;5.00;1.10;;;9.40;99.90;;;;;;4996766;28;20495;-79
2023/05/02 10:26:15;;;;;;;7.68;1.65;;;9.40;99.90;;;;;;4998180;28;20054;-78
2023/05/02 10:28:42;;;;;;;7.20;1.80;;;9.60;99.90;;;;;;4997964;28;20039;-77
2023/05/02 10:31:12;;;;;;;7.00;1.20;;;9.70;99.90;;;;;;4999624;28;20046;-79
2023/05/02 10:33:39;;;;;;;9.02;1.00;;;9.80;99.90;;;;;;4999871;28;20041;-80
2023/05/02 10:36:14;;;;;;;4.40;1.00;;;9.80;99.90;;;;;;4979623;28;20077;-80
2023/05/02 10:38:41;;;;;;;8.77;1.42;;;9.80;99.90;;;;;;4995637;28;20086;-80
2023/05/02 10:41:14;;;;;;;6.53;1.10;;;9.80;99.90;;;;;;4998577;28;20609;-79
2023/05/02 10:43:44;;;;;;;3.70;1.02;;;9.80;99.90;;;;;;4980316;28;20042;-79
2023/05/02 10:46:32;;;;;;;5.60;1.20;;;9.90;99.90;;;;;;4980272;28;20341;-77
2023/05/02 10:49:07;;;;;;;9.40;1.80;;;10.00;99.90;;;;;;4997700;28;20069;-80
2023/05/02 10:51:34;;;;;;;8.43;1.70;;;10.00;99.90;;;;;;4997041;28;20769;-80
2023/05/02 10:54:33;;;;;;;8.50;1.60;;;10.00;99.90;;;;;;4978773;28;20410;-80
2023/05/02 10:57:02;;;;;;;9.32;1.50;;;9.90;99.90;;;;;;5006828;28;20060;-80
2023/05/02 10:59:38;;;;;;;6.85;1.70;;;9.80;99.90;;;;;;4999216;28;20060;-80
2023/05/02 11:02:26;;;;;;;6.35;1.45;;;9.70;99.90;;;;;;4996754;28;20046;-80
2023/05/02 11:05:06;;;;;;;7.32;1.55;;;9.70;99.90;;;;;;4998890;28;20125;-81
2023/05/02 11:07:36;;;;;;;5.22;1.38;;;9.70;99.90;;;;;;4998634;28;20065;-79
2023/05/02 11:10:17;;;;;;;8.55;1.40;;;10.20;99.90;;;;;;4994938;28;20042;-80
2023/05/02 11:12:59;;;;;;;7.75;1.80;;;9.80;99.90;;;;;;4998388;28;20722;-80
2023/05/02 11:15:28;;;;;;;6.68;1.13;;;10.00;99.90;;;;;;4997372;28;21710;-79
2023/05/02 11:18:01;;;;;;;4.22;1.00;;;10.30;99.90;;;;;;4991044;28;20590;-78
2023/05/02 11:20:28;;;;;;;4.00;1.00;;;10.10;99.90;;;;;;4996812;28;20415;-80
2023/05/02 11:22:55;;;;;;;5.65;1.20;;;10.30;99.90;;;;;;4999624;28;20133;-80
2023/05/02 11:25:38;;;;;;;6.38;1.15;;;10.40;99.90;;;;;;4994542;28;20038;-80
2023/05/02 11:28:06;;;;;;;3.15;1.08;;;10.40;99.90;;;;;;4980084;28;20046;-80
2023/05/02 11:30:43;;;;;;;3.75;1.23;;;10.50;99.90;;;;;;4999225;28;20057;-77
2023/05/02 11:33:10;;;;;;;6.53;1.17;;;10.80;99.90;;;;;;4995051;28;20050;-79
2023/05/02 11:35:40;;;;;;;6.57;1.30;;;10.60;99.90;;;;;;4993176;28;20459;-79
2023/05/02 11:38:11;;;;;;;6.78;1.25;;;10.60;99.90;;;;;;4993750;28;20060;-81
2023/05/02 11:40:37;;;;;;;5.13;1.10;;;10.60;99.90;;;;;;4979559;28;20042;-81
2023/05/02 11:43:15;;;;;;;6.45;1.55;;;10.60;99.90;;;;;;4998303;28;20648;-82
2023/05/02 11:45:41;;;;;;;5.97;1.15;;;10.60;99.90;;;;;;4996556;28;20525;-82
2023/05/02 11:48:09;;;;;;;5.22;0.90;;;10.60;99.90;;;;;;4997470;28;20054;-80
2023/05/02 11:50:45;;;;;;;4.57;1.10;;;10.60;99.90;;;;;;4977367;28;20495;-80
2023/05/02 11:53:13;;;;;;;2.15;0.70;;;10.70;99.90;;;;;;4998118;28;20046;-80
2023/05/02 11:55:51;;;;;;;6.85;1.10;;;10.70;99.90;;;;;;4995914;28;20065;-79
2023/05/02 11:58:22;;;;;;;4.07;1.00;;;10.80;99.90;;;;;;4979771;28;20053;-80
2023/05/02 12:00:49;;;;;;;7.30;1.30;;;10.80;99.90;;;;;;4997674;28;20049;-78
2023/05/02 12:03:32;;;;;;;4.85;1.10;;;10.80;99.90;;;;;;5011893;28;20615;-77
2023/05/02 12:06:12;;;;;;;5.45;1.27;;;10.70;99.90;;;;;;4979162;28;20064;-80
2023/05/02 12:08:38;;;;;;;5.57;1.38;;;10.70;99.90;;;;;;4996848;28;20053;-80
2023/05/02 12:11:05;;;;;;;6.82;1.00;;;10.70;99.90;;;;;;4996444;28;20058;-77
2023/05/02 12:13:31;;;;;;;4.88;0.90;;;10.80;99.90;;;;;;5001430;28;20042;-80
2023/05/02 12:15:57;;;;;;;3.80;0.82;;;10.80;99.90;;;;;;4978154;28;20108;-80
2023/05/02 12:18:24;;;;;;;3.33;0.60;;;10.80;99.90;;;;;;4998727;28;20068;-79
2023/05/02 12:20:54;;;;;;;8.10;1.10;;;10.80;99.90;;;;;;4997252;28;20054;-80
2023/05/02 12:23:22;;;;;;;4.28;1.20;;;10.80;99.90;;;;;;4995938;28;20052;-80
2023/05/02 12:25:51;;;;;;;6.25;0.88;;;10.80;99.90;;;;;;4999742;28;20149;-80
2023/05/02 12:28:22;;;;;;;3.25;0.80;;;10.90;99.90;;;;;;4995515;28;20065;-80
2023/05/02 12:30:49;;;;;;;4.47;0.60;;;10.90;99.90;;;;;;4998565;28;20045;-79
2023/05/02 12:33:16;;;;;;;5.93;0.82;;;10.80;99.90;;;;;;5000862;28;20049;-78
2023/05/02 12:35:42;;;;;;;3.40;0.57;;;10.90;99.90;;;;;;4983900;28;20525;-79
2023/05/02 12:38:15;;;;;;;3.13;0.70;;;10.80;99.90;;;;;;4999325;28;20050;-79
2023/05/02 12:40:49;;;;;;;3.67;0.63;;;10.80;99.90;;;;;;4998945;28;20053;-80
2023/05/02 12:43:15;;;;;;;4.75;0.60;;;10.80;99.90;;;;;;4994534;28;20107;-80
2023/05/02 12:45:41;;;;;;;6.93;0.80;;;10.80;99.90;;;;;;4997936;28;20046;-79
2023/05/02 12:48:20;;;;;;;1.55;0.45;;;10.80;99.90;;;;;;4994425;28;20085;-79
2023/05/02 12:50:45;;;;;;;3.10;0.75;;;10.80;99.90;;;;;;4980927;28;20046;-79
2023/05/02 12:53:11;;;;;;;3.28;0.63;;;10.90;99.90;;;;;;4984865;28;20053;-79
2023/05/02 12:55:37;;;;;;;4.05;0.90;;;11.00;99.90;;;;;;5000379;28;20140;-79
2023/05/02 12:58:08;;;;;;;3.88;0.98;;;11.00;99.90;;;;;;5001805;28;20041;-80